createdAt,value
2022-10-29T00:03:04.781Z,14.80
2022-10-29T00:07:11.549Z,14.70
2022-10-29T00:11:21.056Z,14.70
2022-10-29T00:15:29.088Z,14.60
2022-10-29T00:23:59.903Z,14.50
2022-10-29T00:28:06.562Z,14.50
2022-10-29T00:32:13.333Z,14.50
2022-10-29T00:36:22.469Z,14.40
2022-10-29T00:44:53.644Z,14.30
2022-10-29T00:53:30.463Z,14.20
2022-10-29T00:57:41.047Z,14.10
2022-10-29T01:01:48.857Z,14.10
2022-10-29T01:05:55.837Z,14.00
2022-10-29T01:24:32.434Z,13.80
2022-10-29T01:29:03.618Z,13.90
2022-10-29T01:33:46.713Z,13.80
2022-10-29T01:38:24.158Z,13.80
2022-10-29T01:42:46.390Z,13.70
2022-10-29T01:46:57.644Z,13.60
2022-10-29T01:51:10.142Z,13.60
2022-10-29T01:55:21.924Z,13.60
2022-10-29T02:04:23.373Z,13.60
2022-10-29T02:08:44.680Z,13.60
2022-10-29T02:17:18.338Z,13.50
2022-10-29T02:21:24.988Z,13.40
2022-10-29T02:25:31.698Z,13.40
2022-10-29T02:38:27.054Z,13.60
2022-10-29T02:46:57.852Z,13.60
2022-10-29T02:51:04.564Z,13.60
2022-10-29T02:55:11.243Z,13.60
2022-10-29T03:03:42.146Z,13.70
2022-10-29T03:07:48.797Z,13.70
2022-10-29T03:11:55.463Z,13.70
2022-10-29T03:20:26.451Z,13.70
2022-10-29T03:24:33.114Z,13.60
2022-10-29T03:28:39.818Z,13.50
2022-10-29T03:32:47.738Z,13.40
2022-10-29T03:36:54.359Z,13.40
2022-10-29T03:41:01.205Z,13.30
2022-10-29T03:45:09.990Z,13.30
2022-10-29T03:49:16.646Z,13.30
2022-10-29T03:53:24.438Z,13.20
2022-10-29T03:57:31.135Z,13.10
2022-10-29T04:01:37.950Z,13.00
2022-10-29T04:05:44.703Z,13.10
2022-10-29T04:14:15.551Z,13.10
2022-10-29T04:18:24.264Z,13.10
2022-10-29T04:25:07.198Z,13.00
2022-10-29T04:31:24.223Z,13.00
2022-10-29T04:39:55.360Z,13.00
2022-10-29T04:44:02.761Z,13.10
2022-10-29T04:48:09.538Z,13.20
2022-10-29T04:52:16.384Z,13.20
2022-10-29T04:56:23.086Z,13.20
2022-10-29T05:00:29.787Z,13.30
2022-10-29T05:04:36.517Z,13.30
2022-10-29T05:08:43.182Z,13.20
2022-10-29T05:12:57.348Z,13.20
2022-10-29T05:25:55.012Z,12.90
2022-10-29T05:38:50.075Z,12.80
2022-10-29T05:42:57.368Z,12.80
2022-10-29T05:47:06.605Z,12.90
2022-10-29T05:55:37.408Z,13.00
2022-10-29T06:04:08.369Z,13.10
2022-10-29T06:08:15.494Z,13.10
2022-10-29T06:16:46.175Z,13.80
2022-10-29T06:20:53.262Z,13.10
2022-10-29T06:24:59.944Z,13.10
2022-10-29T06:29:07.055Z,13.10
2022-10-29T06:33:13.739Z,13.20
2022-10-29T06:37:20.389Z,13.30
2022-10-29T06:41:27.304Z,13.40
2022-10-29T06:45:34.914Z,13.50
2022-10-29T06:49:41.639Z,13.40
2022-10-29T06:53:49.009Z,14.70
2022-10-29T06:58:05.729Z,13.50
2022-10-29T07:02:13.409Z,13.60
2022-10-29T07:06:21.324Z,13.70
2022-10-29T07:10:32.558Z,13.80
2022-10-29T07:14:39.256Z,13.80
2022-10-29T07:18:45.909Z,13.90
2022-10-29T07:22:52.696Z,13.90
2022-10-29T07:31:23.673Z,14.00
2022-10-29T07:35:30.559Z,14.10
2022-10-29T07:39:37.249Z,14.10
2022-10-29T07:43:43.926Z,14.10
2022-10-29T07:48:02.712Z,14.20
2022-10-29T07:52:10.604Z,14.30
2022-10-29T07:56:17.320Z,14.40
2022-10-29T08:04:49.177Z,14.70
2022-10-29T08:13:20.516Z,15.10
2022-10-29T08:17:29.786Z,15.40
2022-10-29T08:21:36.543Z,15.70
2022-10-29T08:25:43.608Z,15.90
2022-10-29T08:29:50.258Z,16.10
2022-10-29T08:33:57.005Z,16.10
2022-10-29T08:38:03.655Z,16.30
2022-10-29T08:47:20.482Z,16.50
2022-10-29T08:51:33.915Z,16.70
2022-10-29T08:55:41.063Z,16.90
2022-10-29T09:00:21.859Z,17.10
2022-10-29T09:04:37.008Z,17.40
2022-10-29T09:09:04.909Z,17.70
2022-10-29T09:13:38.740Z,17.90
2022-10-29T09:18:03.239Z,18.10
2022-10-29T09:22:52.971Z,18.20
2022-10-29T09:27:09.678Z,18.50
2022-10-29T09:35:57.623Z,19.20
2022-10-29T09:40:18.080Z,19.40
2022-10-29T09:44:41.476Z,19.30
2022-10-29T09:49:08.221Z,19.20
2022-10-29T09:53:14.968Z,19.00
2022-10-29T09:57:29.896Z,19.00
2022-10-29T10:06:02.581Z,18.80
2022-10-29T10:10:23.215Z,18.70
2022-10-29T10:14:31.263Z,18.80
2022-10-29T10:27:50.606Z,18.90
2022-10-29T10:31:57.200Z,18.90
2022-10-29T10:36:09.290Z,18.90
2022-10-29T10:40:22.916Z,18.90
2022-10-29T10:44:30.490Z,18.90
2022-10-29T10:48:37.214Z,19.00
2022-10-29T10:52:45.579Z,18.90
2022-10-29T10:57:02.355Z,19.00
2022-10-29T11:01:28.211Z,19.20
2022-10-29T11:05:49.848Z,19.50
2022-10-29T11:14:27.429Z,19.80
2022-10-29T11:18:41.418Z,20.00
2022-10-29T11:23:14.165Z,20.10
2022-10-29T11:27:39.395Z,20.30
2022-10-29T11:32:10.749Z,20.30
2022-10-29T11:36:23.767Z,20.30
2022-10-29T11:40:47.462Z,20.30
2022-10-29T11:44:54.354Z,20.30
2022-10-29T11:49:10.078Z,20.30
2022-10-29T11:53:36.958Z,20.40
2022-10-29T11:57:54.238Z,20.70
2022-10-29T12:16:36.915Z,21.60
2022-10-29T12:20:55.897Z,21.40
2022-10-29T12:25:45.949Z,21.30
2022-10-29T12:29:58.870Z,21.10
2022-10-29T12:34:26.083Z,21.10
2022-10-29T12:43:26.952Z,21.70
2022-10-29T12:52:19.239Z,22.10
2022-10-29T12:56:27.345Z,22.30
2022-10-29T13:00:45.910Z,22.30
2022-10-29T13:05:10.398Z,22.30
2022-10-29T13:09:21.373Z,22.80
2022-10-29T13:13:40.777Z,23.20
2022-10-29T13:17:49.736Z,23.20
2022-10-29T13:22:02.733Z,23.00
2022-10-29T13:26:09.747Z,22.80
2022-10-29T13:30:27.066Z,22.50
2022-10-29T13:34:53.902Z,22.30
2022-10-29T13:39:08.513Z,22.20
2022-10-29T13:43:18.415Z,22.10
2022-10-29T13:47:25.820Z,22.10
2022-10-29T13:51:44.602Z,22.00
2022-10-29T13:55:52.960Z,21.80
2022-10-29T14:00:08.238Z,21.60
2022-10-29T14:04:25.543Z,21.40
2022-10-29T14:08:46.189Z,21.50
2022-10-29T14:13:11.164Z,21.50
2022-10-29T14:17:19.371Z,21.40
2022-10-29T14:26:00.173Z,21.10
2022-10-29T14:34:45.358Z,21.00
2022-10-29T14:43:27.760Z,21.00
2022-10-29T14:52:05.083Z,20.80
2022-10-29T14:56:19.584Z,20.70
2022-10-29T15:00:33.475Z,20.60
2022-10-29T15:04:58.405Z,20.50
2022-10-29T15:09:20.069Z,20.50
2022-10-29T15:13:31.414Z,20.30
2022-10-29T15:22:29.224Z,20.10
2022-10-29T15:26:43.382Z,20.00
2022-10-29T15:30:50.098Z,19.90
2022-10-29T15:34:59.151Z,19.80
2022-10-29T15:43:58.455Z,19.60
2022-10-29T15:48:12.139Z,19.40
2022-10-29T15:56:45.185Z,19.30
2022-10-29T16:00:52.042Z,19.30
2022-10-29T16:04:58.770Z,19.20
2022-10-29T16:13:30.890Z,19.00
2022-10-29T16:22:01.818Z,18.80
2022-10-29T16:26:21.007Z,18.70
2022-10-29T16:39:16.445Z,18.50
2022-10-29T16:47:47.112Z,18.50
2022-10-29T16:51:53.755Z,18.40
2022-10-29T17:00:26.167Z,18.40
2022-10-29T17:04:32.848Z,18.30
2022-10-29T17:08:40.580Z,18.30
2022-10-29T17:12:48.128Z,18.30
2022-10-29T17:16:54.811Z,18.20
2022-10-29T17:21:01.894Z,18.10
2022-10-29T17:25:09.956Z,18.00
2022-10-29T17:29:16.629Z,17.80
2022-10-29T17:33:23.300Z,17.70
2022-10-29T17:37:29.975Z,17.70
2022-10-29T17:41:37.006Z,17.70
2022-10-29T17:45:44.333Z,17.60
2022-10-29T17:49:51.005Z,17.60
2022-10-29T17:53:57.761Z,17.60
2022-10-29T17:58:04.456Z,17.90
2022-10-29T18:06:35.283Z,17.50
2022-10-29T18:10:41.945Z,17.50
2022-10-29T18:14:48.614Z,17.60
2022-10-29T18:19:01.254Z,17.50
2022-10-29T18:23:08.577Z,17.50
2022-10-29T18:27:15.277Z,17.50
2022-10-29T18:31:24.808Z,17.40
2022-10-29T18:35:31.592Z,17.40
2022-10-29T18:44:03.629Z,17.40
2022-10-29T18:48:10.421Z,17.40
2022-10-29T18:52:17.171Z,17.40
2022-10-29T18:56:24.669Z,17.40
2022-10-29T19:04:55.667Z,17.50
2022-10-29T19:13:29.911Z,17.50
2022-10-29T19:17:36.599Z,17.50
2022-10-29T19:21:43.366Z,17.50
2022-10-29T19:25:50.009Z,17.50
2022-10-29T19:29:56.707Z,17.50
2022-10-29T19:38:30.650Z,17.50
2022-10-29T19:42:37.336Z,17.50
2022-10-29T19:46:44.258Z,17.60
2022-10-29T19:50:53.819Z,17.50
2022-10-29T19:55:00.613Z,17.70
2022-10-29T20:07:56.240Z,17.60
2022-10-29T20:12:03.227Z,17.50
2022-10-29T20:16:12.172Z,17.50
2022-10-29T20:20:19.107Z,17.50
2022-10-29T20:24:25.784Z,17.50
2022-10-29T20:28:32.701Z,17.50
2022-10-29T20:37:03.455Z,17.50
2022-10-29T20:41:10.129Z,17.50
2022-10-29T20:45:17.799Z,17.50
2022-10-29T20:49:24.526Z,17.50
2022-10-29T20:53:31.207Z,17.50
2022-10-29T20:57:37.897Z,17.50
2022-10-29T21:01:44.654Z,17.50
2022-10-29T21:10:15.511Z,17.50
2022-10-29T21:14:23.454Z,17.50
2022-10-29T21:22:54.403Z,17.40
2022-10-29T21:27:01.298Z,17.40
2022-10-29T21:31:08.231Z,17.30
2022-10-29T21:39:39.135Z,17.20
2022-10-29T21:43:46.241Z,17.20
2022-10-29T21:47:52.883Z,17.20
2022-10-29T21:56:24.475Z,17.00
2022-10-29T22:04:55.833Z,16.90
2022-10-29T22:09:02.477Z,16.90
2022-10-29T22:13:11.918Z,16.90
2022-10-29T22:17:21.074Z,16.90
2022-10-29T22:21:27.734Z,16.90
2022-10-29T22:25:34.333Z,16.90
2022-10-29T22:29:40.958Z,16.90
2022-10-29T22:33:48.091Z,16.80
2022-10-29T22:42:18.754Z,16.80
2022-10-29T22:46:26.303Z,16.80
2022-10-29T22:50:32.961Z,16.80
2022-10-29T22:59:05.394Z,16.80
2022-10-29T23:07:36.058Z,16.70
2022-10-29T23:11:42.695Z,16.80
2022-10-29T23:15:51.432Z,16.60
2022-10-29T23:19:58.740Z,16.50
2022-10-29T23:24:05.723Z,16.50
2022-10-29T23:28:12.510Z,16.50
2022-10-29T23:32:19.192Z,16.40
2022-10-29T23:36:27.244Z,16.40
2022-10-29T23:40:33.892Z,16.30
2022-10-29T23:44:40.549Z,16.30
2022-10-29T23:48:47.243Z,16.20
2022-10-29T23:52:53.948Z,16.20
